Time;durP1;ratioP1;P1;durP2;ratioP2;P2;SDS_P1;SDS_P2;PMS_P1;PMS_P2;Temp;Humidity;BMP_temperature;BMP_pressure;BME280_temperature;BME280_humidity;BME280_pressure;Samples;Min_cycle;Max_cycle;Signal;HPM_P1;HPM_P2
2022/06/30 00:00:11;;;;;;;18.80;12.57;;;;;;;-145.18;100.00;46646.72;4914153;29;20119;-72
2022/06/30 00:02:37;;;;;;;15.30;11.87;;;;;;;-145.18;100.00;46648.69;4913334;29;20481;-73
2022/06/30 00:05:03;;;;;;;18.37;13.13;;;;;;;-145.18;100.00;46648.69;4914033;29;20065;-72
2022/06/30 00:07:29;;;;;;;14.20;12.10;;;;;;;-145.18;100.00;46685.78;4913580;29;20044;-73
2022/06/30 00:09:54;;;;;;;23.07;14.43;;;;;;;-145.18;100.00;46679.94;4913576;29;20099;-73
2022/06/30 00:12:19;;;;;;;19.53;13.03;;;;;;;-145.18;100.00;46685.78;4913286;29;20087;-73
2022/06/30 00:14:45;;;;;;;17.37;13.00;;;;;;;-145.18;100.00;46660.41;4913499;29;20039;-73
2022/06/30 00:17:10;;;;;;;14.60;12.50;;;;;;;-145.18;100.00;46660.41;4913659;29;20457;-73
2022/06/30 00:19:36;;;;;;;15.33;13.27;;;;;;;-145.18;100.00;46660.41;4914527;29;20111;-73
2022/06/30 00:22:05;;;;;;;24.53;14.23;;;;;;;-145.18;100.00;46660.41;4917376;29;20028;-73
2022/06/30 00:24:30;;;;;;;17.17;13.80;;;;;;;-145.18;100.00;46660.41;4931615;29;20444;-73
2022/06/30 00:26:56;;;;;;;18.37;14.13;;;;;;;-145.18;100.00;46660.41;4935811;29;20028;-73
2022/06/30 00:29:21;;;;;;;18.07;15.67;;;;;;;-145.18;100.00;46660.41;4936458;29;20071;-73
2022/06/30 00:31:47;;;;;;;19.03;13.97;;;;;;;-145.18;100.00;46660.41;4935539;29;20614;-73
2022/06/30 00:34:12;;;;;;;17.30;14.43;;;;;;;-145.18;100.00;46660.41;4936347;29;20039;-73
2022/06/30 00:36:37;;;;;;;16.93;13.67;;;;;;;-145.18;100.00;46660.41;4935492;29;20507;-74
2022/06/30 00:39:03;;;;;;;19.47;13.70;;;;;;;-145.18;100.00;46660.41;4936198;29;20049;-73
2022/06/30 00:41:28;;;;;;;17.10;12.90;;;;;;;-145.18;100.00;46660.41;4935798;29;20499;-73
2022/06/30 00:43:54;;;;;;;17.07;13.80;;;;;;;-145.18;100.00;46660.41;4936056;29;20032;-73
2022/06/30 00:46:19;;;;;;;18.63;14.03;;;;;;;-145.18;100.00;46660.41;4935396;29;20198;-73
2022/06/30 00:48:44;;;;;;;16.37;13.53;;;;;;;-145.18;100.00;46660.41;4935588;29;20126;-74
2022/06/30 00:51:10;;;;;;;17.60;13.50;;;;;;;-145.18;100.00;46660.41;4935755;29;20046;-74
2022/06/30 00:53:38;;;;;;;21.47;13.63;;;;;;;-145.18;100.00;46660.41;4935416;29;20032;-73
2022/06/30 00:56:04;;;;;;;19.17;14.53;;;;;;;-145.18;100.00;46660.41;4935722;29;20067;-73
2022/06/30 00:58:35;;;;;;;18.37;14.57;;;;;;;-145.18;100.00;46660.41;4935691;29;20034;-73
2022/06/30 01:01:01;;;;;;;20.30;16.47;;;;;;;-145.18;100.00;46660.41;4935376;29;20485;-73
2022/06/30 01:03:26;;;;;;;19.03;14.70;;;;;;;-145.18;100.00;46660.41;4935768;29;20031;-73
2022/06/30 01:05:53;;;;;;;17.73;15.00;;;;;;;-145.18;100.00;46660.41;4935567;29;20091;-72
2022/06/30 01:08:19;;;;;;;21.63;16.93;;;;;;;-145.18;100.00;46660.41;4935311;29;20036;-73
2022/06/30 01:13:29;;;;;;;20.23;15.80;;;;;;;-145.18;100.00;46660.41;4934908;29;20114;-73
2022/06/30 01:15:54;;;;;;;22.27;17.10;;;;;;;-145.18;100.00;46660.41;4935502;29;20646;-73
2022/06/30 01:18:19;;;;;;;22.93;16.73;;;;;;;-145.18;100.00;46660.41;4935112;29;20147;-73
2022/06/30 01:20:45;;;;;;;18.80;16.77;;;;;;;-145.18;100.00;46660.41;4935078;29;20043;-73
2022/06/30 01:23:10;;;;;;;20.93;16.77;;;;;;;-145.18;100.00;46660.41;4917927;29;20055;-73
2022/06/30 01:25:36;;;;;;;22.10;17.67;;;;;;;-145.18;100.00;46660.41;4934975;29;20398;-73
2022/06/30 01:28:02;;;;;;;18.70;16.57;;;;;;;-145.18;100.00;46660.41;4934831;29;20060;-73
2022/06/30 01:30:27;;;;;;;19.17;17.10;;;;;;;-145.18;100.00;46660.41;4934771;29;20390;-72
2022/06/30 01:32:53;;;;;;;21.07;17.77;;;;;;;-145.18;100.00;46660.41;4934313;29;20050;-73
2022/06/30 01:35:19;;;;;;;20.40;18.27;;;;;;;-145.18;100.00;46660.41;4934828;29;20035;-72
2022/06/30 01:37:56;;;;;;;23.20;18.13;;;;;;;-145.18;100.00;46660.41;4934329;29;20032;-73
2022/06/30 01:40:24;;;;;;;20.60;18.40;;;;;;;-145.18;100.00;46660.41;4935072;29;20043;-73
2022/06/30 01:42:50;;;;;;;22.00;19.27;;;;;;;-145.18;100.00;46660.41;4933974;29;20035;-73
2022/06/30 01:45:16;;;;;;;24.80;19.73;;;;;;;-145.18;100.00;46660.41;4934527;29;20067;-72
2022/06/30 01:47:41;;;;;;;24.50;20.30;;;;;;;-145.18;100.00;46660.41;4934029;29;20035;-73
2022/06/30 01:50:13;;;;;;;22.77;19.20;;;;;;;-145.18;100.00;46660.41;4934898;29;20046;-73
2022/06/30 01:52:38;;;;;;;20.70;18.50;;;;;;;-145.18;100.00;46660.41;4933660;29;20121;-73
2022/06/30 01:55:06;;;;;;;21.37;18.97;;;;;;;-145.18;100.00;46656.50;4934734;29;20136;-73
2022/06/30 01:57:32;;;;;;;23.20;19.10;;;;;;;-145.18;100.00;46660.41;4934409;29;20043;-73
2022/06/30 01:59:57;;;;;;;23.77;18.10;;;;;;;-145.18;100.00;46658.44;4934249;29;20058;-73
2022/06/30 02:02:23;;;;;;;20.67;18.47;;;;;;;-145.18;100.00;46660.41;5139854;23;20065;-73
2022/06/30 02:04:48;;;;;;;22.00;19.40;;;;;;;-145.18;100.00;46654.53;4906756;29;20036;-74
2022/06/30 02:07:15;;;;;;;23.20;19.13;;;;;;;-145.18;100.00;46658.44;4897496;29;20519;-74
2022/06/30 02:09:40;;;;;;;27.30;19.77;;;;;;;-145.18;100.00;46656.50;4915138;29;20037;-73
2022/06/30 02:14:50;;;;;;;23.57;18.97;;;;;;;-145.18;100.00;46660.41;4915816;29;20055;-73
2022/06/30 02:17:16;;;;;;;23.17;18.67;;;;;;;-145.18;100.00;46660.41;4914849;29;20039;-74
2022/06/30 02:19:41;;;;;;;25.87;20.47;;;;;;;-145.18;100.00;46660.41;4915484;29;20032;-74
2022/06/30 02:22:06;;;;;;;23.37;20.63;;;;;;;-145.18;100.00;46660.41;4930513;29;20536;-73
2022/06/30 02:24:32;;;;;;;21.30;18.80;;;;;;;-145.18;100.00;46660.41;4933961;29;20098;-74
2022/06/30 02:26:58;;;;;;;28.50;20.13;;;;;;;-145.18;100.00;46660.41;4933658;29;20469;-74
2022/06/30 02:29:23;;;;;;;23.60;20.03;;;;;;;-145.18;100.00;46660.41;4934238;29;20385;-74
2022/06/30 02:31:49;;;;;;;24.83;20.07;;;;;;;-145.18;100.00;46660.41;4934067;29;20096;-74
2022/06/30 02:34:14;;;;;;;25.13;19.17;;;;;;;-145.18;100.00;46660.41;4933396;29;20050;-74
2022/06/30 02:36:39;;;;;;;22.00;19.63;;;;;;;-145.18;100.00;46660.41;4934068;29;20032;-73
2022/06/30 02:39:05;;;;;;;25.67;19.77;;;;;;;-145.18;100.00;46660.41;4933507;29;20492;-73
2022/06/30 02:41:30;;;;;;;23.80;20.53;;;;;;;-145.18;100.00;46660.41;4933653;29;20074;-73
2022/06/30 02:43:58;;;;;;;24.23;21.33;;;;;;;-145.18;100.00;46660.41;4932938;29;20029;-73
2022/06/30 02:46:23;;;;;;;24.57;20.43;;;;;;;-145.18;100.00;46660.41;4933660;29;20063;-74
2022/06/30 02:48:48;;;;;;;26.00;21.03;;;;;;;-145.18;100.00;46656.50;4933190;29;20043;-74
2022/06/30 02:51:14;;;;;;;28.70;22.50;;;;;;;-145.18;100.00;46654.53;4933290;29;20044;-73
2022/06/30 02:53:39;;;;;;;26.00;23.20;;;;;;;-145.18;100.00;46656.50;4933668;29;20075;-73
2022/06/30 02:56:04;;;;;;;27.73;24.83;;;;;;;-145.18;100.00;46658.44;4933584;29;20043;-73
2022/06/30 02:58:30;;;;;;;27.53;23.17;;;;;;;-145.18;100.00;46642.81;4932768;29;20074;-73
2022/06/30 03:00:55;;;;;;;23.83;21.43;;;;;;;-145.18;100.00;46654.53;4933368;29;20556;-73
2022/06/30 03:03:20;;;;;;;24.30;20.30;;;;;;;-145.18;100.00;46656.50;4933346;29;20058;-73
2022/06/30 03:05:46;;;;;;;29.03;20.57;;;;;;;-145.18;100.00;46658.44;4939624;29;20511;-74
2022/06/30 03:08:11;;;;;;;23.93;21.30;;;;;;;-145.18;100.00;46658.44;4932603;29;20473;-74
2022/06/30 03:10:37;;;;;;;24.73;20.27;;;;;;;-145.18;100.00;46654.53;4933263;29;20086;-74
2022/06/30 03:13:02;;;;;;;25.97;20.63;;;;;;;-145.18;100.00;46656.50;4932704;29;20035;-74
2022/06/30 03:15:27;;;;;;;26.20;23.40;;;;;;;-145.18;100.00;46656.50;4933321;29;20032;-74
2022/06/30 03:17:53;;;;;;;24.70;22.20;;;;;;;-145.18;100.00;46656.50;4932556;29;20424;-75
2022/06/30 03:20:18;;;;;;;28.33;22.30;;;;;;;-145.18;100.00;46656.50;4933342;29;20040;-75
2022/06/30 03:22:43;;;;;;;30.57;22.27;;;;;;;-145.18;100.00;46652.59;4932823;29;20043;-74
2022/06/30 03:25:09;;;;;;;25.97;23.17;;;;;;;-145.18;100.00;46654.53;4932744;29;20070;-75
2022/06/30 03:27:34;;;;;;;27.57;24.00;;;;;;;-145.18;100.00;46652.59;4932545;29;20055;-74
2022/06/30 03:29:59;;;;;;;29.40;25.50;;;;;;;-145.18;100.00;46652.59;4933088;29;20043;-74
2022/06/30 03:32:25;;;;;;;29.90;24.03;;;;;;;-145.18;100.00;46652.59;4932521;29;20524;-74
2022/06/30 03:34:51;;;;;;;25.17;22.57;;;;;;;-145.18;100.00;46654.53;4932627;29;20036;-73
2022/06/30 03:37:16;;;;;;;28.73;22.40;;;;;;;-145.18;100.00;46652.59;4929873;29;20043;-74
2022/06/30 03:39:41;;;;;;;24.63;22.03;;;;;;;-145.18;100.00;46656.50;4932672;29;20456;-74
2022/06/30 03:42:07;;;;;;;23.13;20.60;;;;;;;-145.18;100.00;46654.53;4926883;29;20032;-74
2022/06/30 03:44:33;;;;;;;27.13;22.33;;;;;;;-145.18;100.00;46654.53;4932758;29;20040;-74
2022/06/30 03:46:58;;;;;;;26.20;22.33;;;;;;;-145.18;100.00;46656.50;4932413;29;20042;-74
2022/06/30 03:49:24;;;;;;;26.37;21.50;;;;;;;-145.18;100.00;46656.50;4919585;29;20028;-73
2022/06/30 03:51:49;;;;;;;21.83;19.73;;;;;;;-145.18;100.00;46654.53;4934948;29;20032;-73
2022/06/30 03:54:15;;;;;;;27.33;20.67;;;;;;;-145.18;100.00;46656.50;4932927;29;20042;-73
2022/06/30 03:56:40;;;;;;;25.70;22.93;;;;;;;-145.18;100.00;46656.50;4936714;29;20373;-73
2022/06/30 03:59:05;;;;;;;25.50;21.20;;;;;;;-145.18;100.00;46654.53;4936253;29;20067;-74
2022/06/30 04:01:31;;;;;;;25.00;20.53;;;;;;;-145.18;100.00;46654.53;4936951;29;20643;-74
2022/06/30 04:03:56;;;;;;;30.33;22.97;;;;;;;-145.18;100.00;46656.50;4936180;29;20051;-74
2022/06/30 04:06:23;;;;;;;28.87;25.10;;;;;;;-145.18;100.00;46654.53;4917751;29;20075;-74
2022/06/30 04:08:48;;;;;;;27.50;23.67;;;;;;;-145.18;100.00;46652.59;4917371;29;20149;-74
2022/06/30 04:11:14;;;;;;;32.63;25.30;;;;;;;-145.18;100.00;46658.44;4917532;29;20126;-72
2022/06/30 04:13:39;;;;;;;31.30;26.23;;;;;;;-145.18;100.00;46642.81;4917362;29;20469;-73
2022/06/30 04:16:05;;;;;;;28.00;24.93;;;;;;;-145.18;100.00;46654.53;4917520;29;20134;-74
2022/06/30 04:18:30;;;;;;;27.53;24.33;;;;;;;-145.18;100.00;46650.63;4916434;29;20036;-74
2022/06/30 04:20:55;;;;;;;27.50;24.60;;;;;;;-145.18;100.00;46640.88;4917144;29;20047;-74
2022/06/30 04:23:21;;;;;;;29.60;24.77;;;;;;;-145.18;100.00;46642.81;4898923;29;20084;-74
2022/06/30 04:25:46;;;;;;;27.77;22.53;;;;;;;-145.18;100.00;46650.63;4917501;29;20044;-74
2022/06/30 04:28:11;;;;;;;27.20;23.43;;;;;;;-145.18;100.00;46650.63;4916635;29;20149;-74
2022/06/30 04:33:21;;;;;;;36.20;30.10;;;;;;;-145.18;100.00;46642.81;4927019;29;20107;-74
2022/06/30 04:35:46;;;;;;;32.57;28.73;;;;;;;-145.18;100.00;46638.91;4924379;29;20485;-73
2022/06/30 04:38:12;;;;;;;34.03;28.73;;;;;;;-145.18;100.00;46640.88;4926071;29;20067;-73
2022/06/30 04:43:21;;;;;;;38.80;33.33;;;;;;;-145.18;100.00;46640.88;4926512;29;20039;-73
2022/06/30 04:45:46;;;;;;;42.17;33.83;;;;;;;-145.18;100.00;46642.81;4922588;29;20032;-74
2022/06/30 04:48:12;;;;;;;38.90;31.57;;;;;;;-145.18;100.00;46635.00;4915812;29;20485;-73
2022/06/30 04:50:38;;;;;;;39.53;32.57;;;;;;;-145.18;100.00;46642.81;4917164;29;20072;-74
2022/06/30 04:53:04;;;;;;;36.20;31.10;;;;;;;-145.18;100.00;46640.88;4916322;29;20028;-74
2022/06/30 04:55:29;;;;;;;36.40;31.90;;;;;;;-145.18;100.00;46638.91;4930465;29;20503;-74
2022/06/30 04:57:55;;;;;;;37.40;31.37;;;;;;;-145.18;100.00;46636.94;4931776;29;20046;-74
2022/06/30 05:00:20;;;;;;;39.60;30.30;;;;;;;-145.18;100.00;46635.00;4935828;29;20445;-74
2022/06/30 05:02:45;;;;;;;37.03;28.13;;;;;;;-145.18;100.00;46635.00;4934298;29;20051;-74
2022/06/30 05:05:11;;;;;;;34.13;28.77;;;;;;;-145.18;100.00;46636.94;4929857;29;20079;-74
2022/06/30 05:07:36;;;;;;;34.90;28.23;;;;;;;-145.18;100.00;46636.94;4930691;29;20043;-74
2022/06/30 05:10:03;;;;;;;36.87;28.50;;;;;;;-145.18;100.00;46636.94;4916618;29;20111;-74
2022/06/30 05:12:28;;;;;;;35.63;26.07;;;;;;;-145.18;100.00;46635.00;4916388;29;20501;-74
2022/06/30 05:14:54;;;;;;;33.70;25.10;;;;;;;-145.18;100.00;46631.09;4916531;29;20036;-74
2022/06/30 05:17:19;;;;;;;27.30;22.87;;;;;;;-145.18;100.00;46635.00;4916729;29;20032;-74
2022/06/30 05:19:45;;;;;;;22.67;18.90;;;;;;;-145.18;100.00;46635.00;4896345;29;20036;-74
2022/06/30 05:22:10;;;;;;;20.63;14.47;;;;;;;-145.18;100.00;46638.91;4913515;29;20033;-74
2022/06/30 05:27:19;;;;;;;14.50;9.93;;;;;;;-145.18;100.00;46635.00;4916739;29;20079;-74
2022/06/30 05:29:45;;;;;;;12.70;8.00;;;;;;;-145.18;100.00;46640.88;4916202;29;20131;-74
2022/06/30 05:32:10;;;;;;;13.73;7.07;;;;;;;-145.18;100.00;46640.88;4916499;29;20036;-74
2022/06/30 05:34:36;;;;;;;13.57;7.43;;;;;;;-145.18;100.00;46640.88;4915930;29;20127;-74
2022/06/30 05:37:04;;;;;;;12.83;6.87;;;;;;;-145.18;100.00;46640.88;4916245;29;20033;-74
2022/06/30 05:39:31;;;;;;;9.90;6.33;;;;;;;-145.18;100.00;46640.88;4915930;29;20063;-74
2022/06/30 05:41:56;;;;;;;9.27;7.13;;;;;;;-145.18;100.00;46640.88;4915941;29;20036;-74
2022/06/30 05:44:22;;;;;;;15.80;6.40;;;;;;;-145.18;100.00;46640.88;4897735;29;20119;-74
2022/06/30 05:46:47;;;;;;;13.40;7.57;;;;;;;-145.18;100.00;46640.88;4915994;29;20042;-74
2022/06/30 05:49:12;;;;;;;14.20;6.93;;;;;;;-145.18;100.00;46642.81;4915523;29;20102;-74
2022/06/30 05:51:38;;;;;;;12.23;7.60;;;;;;;-145.18;100.00;46640.88;4920748;29;20102;-74
2022/06/30 05:54:03;;;;;;;12.57;7.37;;;;;;;-145.18;100.00;46640.88;4915404;29;20028;-74
2022/06/30 05:56:29;;;;;;;14.03;7.10;;;;;;;-145.18;100.00;46636.94;4915919;29;20036;-74
2022/06/30 05:58:54;;;;;;;10.90;6.63;;;;;;;-145.18;100.00;46640.88;4915341;29;20508;-74
2022/06/30 06:01:20;;;;;;;14.00;7.30;;;;;;;-145.18;100.00;46640.88;4915863;29;20106;-74
2022/06/30 06:03:46;;;;;;;16.33;7.73;;;;;;;-145.18;100.00;46650.63;4915130;29;20139;-74
2022/06/30 06:06:11;;;;;;;20.47;9.17;;;;;;;-145.18;100.00;46640.88;4915398;29;20735;-74
2022/06/30 06:08:37;;;;;;;17.23;9.20;;;;;;;-145.18;100.00;46648.69;4915078;29;20043;-74
2022/06/30 06:11:02;;;;;;;21.07;10.57;;;;;;;-145.18;100.00;46640.88;4915515;29;20040;-74
2022/06/30 06:16:03;;;;;;;21.02;11.10;;;;;;;-145.18;100.00;46638.91;5372079;23;20056;-78
2022/06/30 06:18:28;;;;;;;20.87;10.30;;;;;;;-145.18;100.00;46638.91;4879694;29;20029;-78
2022/06/30 06:20:53;;;;;;;13.27;9.20;;;;;;;-145.18;100.00;46640.88;4867538;29;20437;-78
2022/06/30 06:23:19;;;;;;;18.37;9.37;;;;;;;-145.18;100.00;46638.91;4900337;29;20196;-78
2022/06/30 06:25:44;;;;;;;21.13;7.87;;;;;;;-145.18;100.00;46597.88;4900385;29;20119;-78
2022/06/30 06:30:54;;;;;;;13.43;7.00;;;;;;;-145.18;100.00;46603.75;4886119;29;20047;-78
2022/06/30 06:33:19;;;;;;;18.30;7.83;;;;;;;-145.18;100.00;46601.78;4900148;29;20414;-78
2022/06/30 06:35:45;;;;;;;17.27;8.07;;;;;;;-145.18;100.00;46609.59;4900339;29;20080;-79
2022/06/30 06:38:10;;;;;;;22.63;9.83;;;;;;;-145.18;100.00;46599.84;4899920;29;20333;-78
2022/06/30 06:40:35;;;;;;;20.57;9.30;;;;;;;-145.18;100.00;46607.66;4898845;29;20120;-78
2022/06/30 06:43:01;;;;;;;12.73;6.00;;;;;;;-145.18;100.00;46611.56;4899929;29;20060;-78
2022/06/30 06:45:26;;;;;;;14.03;6.13;;;;;;;-145.18;100.00;46609.59;4900139;29;20128;-79
2022/06/30 06:47:51;;;;;;;17.00;7.07;;;;;;;-145.18;100.00;46611.56;4899791;29;20036;-78
2022/06/30 06:50:17;;;;;;;16.83;6.10;;;;;;;-145.18;100.00;46613.50;4899724;29;20033;-78
2022/06/30 06:52:42;;;;;;;19.13;6.53;;;;;;;-145.18;100.00;46611.56;4899914;29;20378;-78
2022/06/30 06:55:08;;;;;;;13.87;5.93;;;;;;;-145.18;100.00;46617.41;4899301;29;20457;-78
2022/06/30 06:57:35;;;;;;;12.97;5.77;;;;;;;-145.18;100.00;46613.50;4899921;29;20103;-78
2022/06/30 07:00:05;;;;;;;12.43;4.57;;;;;;;-145.18;100.00;46619.38;4899515;29;20417;-78
2022/06/30 07:02:30;;;;;;;7.70;4.43;;;;;;;-145.18;100.00;46615.47;4899467;29;20366;-79
2022/06/30 07:04:55;;;;;;;8.80;5.50;;;;;;;-145.18;100.00;46617.41;4899236;29;20043;-78
2022/06/30 07:07:21;;;;;;;12.53;4.83;;;;;;;-145.18;100.00;46621.31;4898738;29;20047;-78
2022/06/30 07:09:46;;;;;;;10.23;4.83;;;;;;;-145.18;100.00;46621.31;4899592;29;20060;-78
2022/06/30 07:12:11;;;;;;;10.97;5.43;;;;;;;-145.18;100.00;46627.19;4899265;29;20058;-78
2022/06/30 07:14:37;;;;;;;12.23;5.30;;;;;;;-145.18;100.00;46627.19;4899191;29;20111;-78
2022/06/30 07:17:02;;;;;;;8.67;4.30;;;;;;;-145.18;100.00;46621.31;4899245;29;20056;-78
2022/06/30 07:19:28;;;;;;;11.93;4.50;;;;;;;-145.18;100.00;46625.22;4899548;29;20189;-79
2022/06/30 07:21:53;;;;;;;13.67;5.10;;;;;;;-145.18;100.00;46629.13;4899601;29;20165;-78
2022/06/30 07:24:18;;;;;;;13.63;4.53;;;;;;;-145.18;100.00;46631.09;4899071;29;20043;-79
2022/06/30 07:26:44;;;;;;;12.60;5.23;;;;;;;-145.18;100.00;46629.13;4899531;29;20047;-79
2022/06/30 07:29:09;;;;;;;12.13;4.57;;;;;;;-145.18;100.00;46629.13;4898662;29;20036;-78
2022/06/30 07:31:34;;;;;;;9.57;4.70;;;;;;;-145.18;100.00;46631.09;4899606;29;20392;-78
2022/06/30 07:34:00;;;;;;;11.20;4.10;;;;;;;-145.18;100.00;46633.06;4898860;29;20036;-78
2022/06/30 07:36:26;;;;;;;15.00;4.70;;;;;;;-145.18;100.00;46631.09;4899402;29;20040;-79
2022/06/30 07:38:51;;;;;;;11.03;4.30;;;;;;;-145.18;100.00;46633.06;4899046;29;20041;-79
2022/06/30 07:41:17;;;;;;;11.13;4.40;;;;;;;-145.18;100.00;46638.91;4897982;29;20060;-79
2022/06/30 07:43:43;;;;;;;12.10;4.37;;;;;;;-145.18;100.00;46633.06;4899135;29;20337;-79
2022/06/30 07:46:08;;;;;;;9.40;3.93;;;;;;;-145.18;100.00;46638.91;4898943;29;20029;-79
2022/06/30 07:48:34;;;;;;;10.57;5.00;;;;;;;-145.18;100.00;46638.91;4898804;29;20040;-78
2022/06/30 07:51:00;;;;;;;13.83;4.90;;;;;;;-145.18;100.00;46638.91;4898939;29;20033;-78
2022/06/30 07:53:25;;;;;;;13.50;5.13;;;;;;;-145.18;100.00;46640.88;4899155;29;20059;-79
2022/06/30 07:55:50;;;;;;;11.17;3.83;;;;;;;-145.18;100.00;46638.91;4899527;29;20362;-79
2022/06/30 07:58:16;;;;;;;15.90;4.47;;;;;;;-145.18;100.00;46642.81;4898936;29;20509;-79
2022/06/30 08:00:41;;;;;;;9.73;4.07;;;;;;;-145.18;100.00;46646.72;4899240;29;20044;-78
2022/06/30 08:03:06;;;;;;;13.60;4.87;;;;;;;-145.18;100.00;46642.81;4881985;29;20040;-78
2022/06/30 08:05:32;;;;;;;9.30;4.20;;;;;;;-145.18;100.00;46650.63;4882482;29;20437;-78
2022/06/30 08:07:57;;;;;;;9.07;4.10;;;;;;;-145.18;100.00;46650.63;4898858;29;20047;-79
2022/06/30 08:10:23;;;;;;;10.70;3.47;;;;;;;-145.18;100.00;46654.53;4898994;29;20107;-78
2022/06/30 08:12:48;;;;;;;10.23;4.07;;;;;;;-145.18;100.00;46660.41;4899050;29;20064;-78
2022/06/30 08:15:14;;;;;;;9.93;4.07;;;;;;;-145.18;100.00;46658.44;4898559;29;20116;-79
2022/06/30 08:17:39;;;;;;;7.57;3.47;;;;;;;-145.18;100.00;46656.50;4899056;29;20032;-78
2022/06/30 08:20:05;;;;;;;10.73;3.70;;;;;;;-145.18;100.00;46668.22;4898617;29;20325;-79
2022/06/30 08:22:30;;;;;;;14.97;3.07;;;;;;;-145.18;100.00;46666.25;4898173;29;20037;-78
2022/06/30 08:24:58;;;;;;;10.23;2.60;;;;;;;-145.18;100.00;46658.44;4899057;29;20497;-78
2022/06/30 08:27:24;;;;;;;7.10;3.10;;;;;;;-145.18;100.00;46664.31;4882381;29;20141;-79
2022/06/30 08:29:49;;;;;;;6.03;2.67;;;;;;;-145.18;100.00;46662.34;4898639;29;20123;-78
2022/06/30 08:32:15;;;;;;;8.47;2.93;;;;;;;-145.18;100.00;46670.16;4898802;29;20036;-79
2022/06/30 08:34:41;;;;;;;7.10;2.73;;;;;;;-145.18;100.00;46668.22;4898825;29;20044;-78
2022/06/30 08:37:07;;;;;;;8.40;2.90;;;;;;;-145.18;100.00;46670.16;4898687;29;20036;-78
2022/06/30 08:42:20;;;;;;;8.83;2.93;;;;;;;-145.18;100.00;46660.41;4901893;29;20416;-78
2022/06/30 08:45:13;;;;;;;11.40;3.40;;;;;;;-145.18;100.00;46660.41;4902151;29;20051;-78
2022/06/30 08:47:36;;;;;;;7.90;2.90;;;;;;;-145.18;100.00;46668.22;4902044;29;20040;-78
2022/06/30 08:50:01;;;;;;;7.10;2.60;;;;;;;-145.18;100.00;46646.72;4900739;29;20063;-78
2022/06/30 08:52:29;;;;;;;7.23;2.80;;;;;;;-145.18;100.00;46650.63;4902215;29;20051;-78
2022/06/30 08:54:55;;;;;;;8.47;2.60;;;;;;;-145.18;100.00;46574.44;4902133;29;20042;-78
2022/06/30 08:57:21;;;;;;;6.13;2.67;;;;;;;-145.18;100.00;46597.88;4901786;29;20422;-80
2022/06/30 08:59:47;;;;;;;5.87;2.80;;;;;;;-145.18;100.00;46576.41;4885231;29;20390;-80
2022/06/30 09:02:12;;;;;;;6.50;2.47;;;;;;;-145.18;100.00;46568.59;4901876;29;20037;-80
2022/06/30 09:04:38;;;;;;;7.00;2.80;;;;;;;-145.18;100.00;46551.00;4901738;29;20065;-80
2022/06/30 09:07:03;;;;;;;9.17;2.60;;;;;;;-145.18;100.00;46539.28;4901901;29;20052;-78
2022/06/30 09:09:29;;;;;;;13.90;2.67;;;;;;;-145.18;100.00;46562.72;4901514;29;20040;-78
2022/06/30 09:11:56;;;;;;;14.03;2.40;;;;;;;-145.18;100.00;46533.44;4901624;29;20111;-78
2022/06/30 09:14:33;;;;;;;5.97;2.17;;;;;;;-145.18;100.00;46531.47;4901428;29;20032;-80
2022/06/30 09:16:59;;;;;;;7.47;2.57;;;;;;;-145.18;100.00;46529.53;4901663;29;20470;-79
2022/06/30 09:19:25;;;;;;;8.73;2.70;;;;;;;-145.18;100.00;46531.47;4901606;29;20029;-78
2022/06/30 09:22:04;;;;;;;9.43;2.50;;;;;;;-145.18;100.00;46529.53;4901704;29;20032;-78
2022/06/30 09:24:30;;;;;;;4.67;2.30;;;;;;;-145.18;100.00;46535.38;4901347;29;20039;-78
2022/06/30 09:27:09;;;;;;;6.03;2.07;;;;;;;-145.18;100.00;46523.66;4901660;29;20040;-78
2022/06/30 09:29:44;;;;;;;8.47;2.20;;;;;;;-145.18;100.00;46521.72;4901401;29;20425;-78
2022/06/30 09:32:10;;;;;;;;;;;;;;;-145.18;100.00;46523.66;4901533;29;20421;-78
2022/06/30 09:34:35;;;;;;;;;;;;;;;-145.18;100.00;46527.56;4901763;29;19923;-78
2022/06/30 09:37:13;;;;;;;7.47;2.53;;;;;;;-145.18;100.00;46531.47;4901541;29;19915;-78
2022/06/30 09:39:42;;;;;;;3.97;2.27;;;;;;;-145.18;100.00;46531.47;4901453;29;20059;-78
2022/06/30 09:42:07;;;;;;;5.80;1.90;;;;;;;-145.18;100.00;46531.47;4884402;29;20068;-78
2022/06/30 09:44:34;;;;;;;4.07;1.67;;;;;;;-145.18;100.00;46519.75;4900965;29;20124;-78
2022/06/30 09:47:10;;;;;;;6.70;1.93;;;;;;;-145.18;100.00;46521.72;4901496;29;20044;-79
2022/06/30 09:49:39;;;;;;;5.57;1.97;;;;;;;-145.18;100.00;46515.84;4900990;29;20047;-78
2022/06/30 09:52:23;;;;;;;8.33;2.20;;;;;;;-145.18;100.00;46517.81;4900872;29;20429;-79
2022/06/30 09:55:02;;;;;;;7.17;1.60;;;;;;;-145.18;100.00;46511.94;4900911;29;20040;-79
2022/06/30 09:57:32;;;;;;;4.20;1.60;;;;;;;-145.18;100.00;46521.72;4901023;29;20385;-78
2022/06/30 10:00:16;;;;;;;6.77;2.03;;;;;;;-145.18;100.00;46508.03;4900881;29;20032;-79
2022/06/30 10:02:46;;;;;;;6.13;1.83;;;;;;;-145.18;100.00;46527.56;4900819;29;20070;-79
2022/06/30 10:05:13;;;;;;;8.47;1.97;;;;;;;-145.18;100.00;46521.72;4900247;29;20060;-79
2022/06/30 10:07:38;;;;;;;3.73;1.70;;;;;;;-145.18;100.00;46511.94;4900769;29;20036;-78
2022/06/30 10:10:15;;;;;;;5.67;1.83;;;;;;;-145.18;100.00;46511.94;4900392;29;20039;-79
2022/06/30 10:12:44;;;;;;;7.63;2.07;;;;;;;-145.18;100.00;46517.81;4900698;29;20046;-78
2022/06/30 10:15:12;;;;;;;6.20;2.17;;;;;;;-145.18;100.00;46511.94;4883164;29;20445;-79
2022/06/30 10:17:43;;;;;;;7.00;2.33;;;;;;;-145.18;100.00;46513.91;4884203;29;20421;-79
2022/06/30 10:20:10;;;;;;;7.10;2.37;;;;;;;-145.18;100.00;46515.84;4900256;29;20406;-78
2022/06/30 10:22:38;;;;;;;9.27;2.33;;;;;;;-145.18;100.00;46502.19;4900565;29;20041;-78
2022/06/30 10:25:04;;;;;;;4.97;1.97;;;;;;;-145.18;100.00;46504.13;4899924;29;20092;-78
2022/06/30 10:27:29;;;;;;;4.97;2.47;;;;;;;-145.18;100.00;46517.81;4900367;29;20032;-78
2022/06/30 10:29:57;;;;;;;11.30;2.30;;;;;;;-145.18;100.00;46492.41;4868147;29;20417;-79
2022/06/30 10:32:54;;;;;;;5.20;2.10;;;;;;;-145.18;100.00;46502.19;4900159;29;20092;-79
2022/06/30 10:35:41;;;;;;;7.07;2.80;;;;;;;-145.18;100.00;46492.41;4900042;29;20039;-79
2022/06/30 10:38:31;;;;;;;8.48;2.28;;;;;;;-145.18;100.00;46521.72;4900187;29;20041;-79
2022/06/30 10:41:12;;;;;;;7.75;2.80;;;;;;;-145.18;100.00;46504.13;4883706;29;20040;-79
2022/06/30 10:44:05;;;;;;;7.47;2.80;;;;;;;-145.18;100.00;46502.19;4900024;29;20032;-78
2022/06/30 10:46:31;;;;;;;7.30;2.17;;;;;;;-145.18;100.00;46500.22;4899990;29;20035;-79
2022/06/30 10:48:57;;;;;;;6.40;2.27;;;;;;;-145.18;100.00;46515.84;4899887;29;20425;-79
2022/06/30 10:51:25;;;;;;;6.90;2.30;;;;;;;-145.18;100.00;46492.41;4899775;29;20044;-79
2022/06/30 10:53:56;;;;;;;8.90;2.40;;;;;;;-145.18;100.00;46504.13;4899702;29;20080;-79
2022/06/30 10:56:25;;;;;;;7.25;2.75;;;;;;;-145.18;100.00;46486.56;4899621;29;20039;-79
2022/06/30 10:59:04;;;;;;;7.35;2.47;;;;;;;-145.18;100.00;46523.66;4899758;29;20417;-79
2022/06/30 11:01:29;;;;;;;6.20;2.00;;;;;;;-145.18;100.00;46527.56;4899736;29;20063;-79
2022/06/30 11:03:56;;;;;;;6.22;2.50;;;;;;;-145.18;100.00;46535.38;4899086;29;20421;-78
2022/06/30 11:06:23;;;;;;;7.50;2.33;;;;;;;-145.18;100.00;46531.47;4899868;29;20180;-79
2022/06/30 11:08:49;;;;;;;8.03;2.20;;;;;;;-145.18;100.00;46523.66;4899541;29;20044;-79
2022/06/30 11:11:23;;;;;;;5.93;2.30;;;;;;;-145.18;100.00;46511.94;4899453;29;20111;-79
2022/06/30 11:13:51;;;;;;;5.87;1.80;;;;;;;-145.18;100.00;46515.84;4899405;29;20337;-78
2022/06/30 11:16:19;;;;;;;8.23;2.67;;;;;;;-145.18;100.00;46519.75;4899301;29;20088;-79
2022/06/30 11:18:46;;;;;;;5.23;2.10;;;;;;;-145.18;100.00;46529.53;4899438;29;20044;-79